sensor_id;sensor_type;location;lat;lon;timestamp;pressure;altitude;pressure_sealevel;temperature;humidity
59729;BME280;45588;51.598;5.618;2022-10-16T00:00:22;100902.00;;;11.39;100.00
59729;BME280;45588;51.598;5.618;2022-10-16T00:02:47;100907.22;;;11.39;100.00
59729;BME280;45588;51.598;5.618;2022-10-16T00:05:13;100902.81;;;11.38;100.00
59729;BME280;45588;51.598;5.618;2022-10-16T00:07:38;100905.41;;;11.37;100.00
59729;BME280;45588;51.598;5.618;2022-10-16T00:10:03;100905.44;;;11.38;100.00
59729;BME280;45588;51.598;5.618;2022-10-16T00:12:29;100881.91;;;11.35;100.00
59729;BME280;45588;51.598;5.618;2022-10-16T00:14:54;100889.72;;;11.35;100.00
59729;BME280;45588;51.598;5.618;2022-10-16T00:17:19;100890.56;;;11.33;100.00
59729;BME280;45588;51.598;5.618;2022-10-16T00:19:45;100901.84;;;11.33;100.00
59729;BME280;45588;51.598;5.618;2022-10-16T00:22:10;100896.59;;;11.30;100.00
59729;BME280;45588;51.598;5.618;2022-10-16T00:24:36;100903.53;;;11.31;100.00
59729;BME280;45588;51.598;5.618;2022-10-16T00:27:01;100903.47;;;11.28;100.00
59729;BME280;45588;51.598;5.618;2022-10-16T00:29:27;100901.75;;;11.27;100.00
59729;BME280;45588;51.598;5.618;2022-10-16T00:31:52;100897.28;;;11.21;100.00
59729;BME280;45588;51.598;5.618;2022-10-16T00:34:17;100905.13;;;11.23;100.00
59729;BME280;45588;51.598;5.618;2022-10-16T00:36:42;100894.59;;;11.18;100.00
59729;BME280;45588;51.598;5.618;2022-10-16T00:39:08;100897.19;;;11.17;100.00
59729;BME280;45588;51.598;5.618;2022-10-16T00:41:33;100898.88;;;11.15;100.00
59729;BME280;45588;51.598;5.618;2022-10-16T00:47:05;100901.44;;;11.13;100.00
59729;BME280;45588;51.598;5.618;2022-10-16T00:49:30;100896.97;;;11.08;100.00
59729;BME280;45588;51.598;5.618;2022-10-16T00:51:55;100904.75;;;11.06;100.00
59729;BME280;45588;51.598;5.618;2022-10-16T00:54:23;100904.78;;;11.08;100.00
59729;BME280;45588;51.598;5.618;2022-10-16T00:56:50;100904.66;;;11.01;100.00
59729;BME280;45588;51.598;5.618;2022-10-16T00:59:24;100905.47;;;10.99;100.00
59729;BME280;45588;51.598;5.618;2022-10-16T01:01:50;100898.47;;;10.96;100.00
59729;BME280;45588;51.598;5.618;2022-10-16T01:04:16;100904.63;;;11.00;100.00
59729;BME280;45588;51.598;5.618;2022-10-16T01:12:50;100900.19;;;10.96;100.00
59729;BME280;45588;51.598;5.618;2022-10-16T01:15:34;100892.28;;;10.91;100.00
59729;BME280;45588;51.598;5.618;2022-10-16T01:18:11;100890.50;;;10.90;100.00
59729;BME280;45588;51.598;5.618;2022-10-16T01:21:02;100896.59;;;10.91;100.00
59729;BME280;45588;51.598;5.618;2022-10-16T01:26:42;100893.97;;;10.89;100.00
59729;BME280;45588;51.598;5.618;2022-10-16T01:29:34;100895.78;;;10.93;100.00
59729;BME280;45588;51.598;5.618;2022-10-16T01:34:52;100893.16;;;10.93;100.00
59729;BME280;45588;51.598;5.618;2022-10-16T01:37:30;100903.63;;;10.95;100.00
59729;BME280;45588;51.598;5.618;2022-10-16T01:39:59;100900.16;;;10.94;100.00
59729;BME280;45588;51.598;5.618;2022-10-16T01:42:31;100911.56;;;10.99;100.00
59729;BME280;45588;51.598;5.618;2022-10-16T01:44:59;100896.75;;;10.97;100.00
59729;BME280;45588;51.598;5.618;2022-10-16T01:47:26;100904.56;;;10.98;100.00
59729;BME280;45588;51.598;5.618;2022-10-16T01:49:53;100907.28;;;11.01;100.00
59729;BME280;45588;51.598;5.618;2022-10-16T01:52:23;100905.47;;;10.99;100.00
59729;BME280;45588;51.598;5.618;2022-10-16T01:54:53;100894.19;;;11.00;100.00
59729;BME280;45588;51.598;5.618;2022-10-16T01:57:20;100891.69;;;11.04;100.00
59729;BME280;45588;51.598;5.618;2022-10-16T01:59:51;100892.47;;;11.00;100.00
59729;BME280;45588;51.598;5.618;2022-10-16T02:02:19;100901.31;;;11.07;100.00
59729;BME280;45588;51.598;5.618;2022-10-16T02:04:48;100904.75;;;11.06;100.00
59729;BME280;45588;51.598;5.618;2022-10-16T02:07:15;100914.44;;;11.12;100.00
59729;BME280;45588;51.598;5.618;2022-10-16T02:09:41;100903.09;;;11.10;100.00
59729;BME280;45588;51.598;5.618;2022-10-16T02:12:14;100907.53;;;11.14;100.00
59729;BME280;45588;51.598;5.618;2022-10-16T02:14:41;100914.44;;;11.12;100.00
59729;BME280;45588;51.598;5.618;2022-10-16T02:17:12;100916.16;;;11.11;100.00
59729;BME280;45588;51.598;5.618;2022-10-16T02:19:38;100910.06;;;11.11;100.00
59729;BME280;45588;51.598;5.618;2022-10-16T02:22:04;100908.38;;;11.13;100.00
59729;BME280;45588;51.598;5.618;2022-10-16T02:24:54;100920.59;;;11.14;100.00
59729;BME280;45588;51.598;5.618;2022-10-16T02:30:00;100904.69;;;11.03;100.00
59729;BME280;45588;51.598;5.618;2022-10-16T02:32:30;100906.34;;;10.99;100.00
59729;BME280;45588;51.598;5.618;2022-10-16T02:34:57;100896.75;;;10.98;100.00
59729;BME280;45588;51.598;5.618;2022-10-16T02:37:24;100906.31;;;10.98;100.00
59729;BME280;45588;51.598;5.618;2022-10-16T02:39:51;100906.28;;;10.96;100.00
59729;BME280;45588;51.598;5.618;2022-10-16T02:42:17;100899.25;;;10.92;100.00
59729;BME280;45588;51.598;5.618;2022-10-16T02:44:43;100914.75;;;10.88;100.00
59729;BME280;45588;51.598;5.618;2022-10-16T02:47:08;100917.41;;;10.89;100.00
59729;BME280;45588;51.598;5.618;2022-10-16T02:49:33;100919.16;;;10.89;100.00
59729;BME280;45588;51.598;5.618;2022-10-16T02:51:59;100919.03;;;10.84;100.00
59729;BME280;45588;51.598;5.618;2022-10-16T02:54:24;100907.66;;;10.80;100.00
59729;BME280;45588;51.598;5.618;2022-10-16T02:56:49;100903.25;;;10.78;100.00
59729;BME280;45588;51.598;5.618;2022-10-16T02:59:15;100897.22;;;10.79;100.00
59729;BME280;45588;51.598;5.618;2022-10-16T03:01:40;100894.50;;;10.76;100.00
59729;BME280;45588;51.598;5.618;2022-10-16T03:04:05;100892.72;;;10.73;100.00
59729;BME280;45588;51.598;5.618;2022-10-16T03:06:31;100900.50;;;10.72;100.00
59729;BME280;45588;51.598;5.618;2022-10-16T03:08:56;100907.41;;;10.70;100.00
59729;BME280;45588;51.598;5.618;2022-10-16T03:11:21;100915.28;;;10.71;100.00
59729;BME280;45588;51.598;5.618;2022-10-16T03:13:46;100917.75;;;10.67;100.00
59729;BME280;45588;51.598;5.618;2022-10-16T03:16:12;100917.69;;;10.64;100.00
59729;BME280;45588;51.598;5.618;2022-10-16T03:18:37;100924.59;;;10.63;100.00
59729;BME280;45588;51.598;5.618;2022-10-16T03:21:02;100922.00;;;10.63;100.00
59729;BME280;45588;51.598;5.618;2022-10-16T03:23:28;100924.59;;;10.63;100.00
59729;BME280;45588;51.598;5.618;2022-10-16T03:25:54;100935.00;;;10.61;100.00
59729;BME280;45588;51.598;5.618;2022-10-16T03:28:19;100938.47;;;10.62;100.00
59729;BME280;45588;51.598;5.618;2022-10-16T03:30:44;100936.72;;;10.61;100.00
59729;BME280;45588;51.598;5.618;2022-10-16T03:33:09;100939.16;;;10.55;100.00
59729;BME280;45588;51.598;5.618;2022-10-16T03:35:35;100938.25;;;10.53;100.00
59729;BME280;45588;51.598;5.618;2022-10-16T03:38:00;100944.38;;;10.55;100.00
59729;BME280;45588;51.598;5.618;2022-10-16T03:40:26;100946.22;;;10.59;100.00
59729;BME280;45588;51.598;5.618;2022-10-16T03:42:51;100935.56;;;10.48;100.00
59729;BME280;45588;51.598;5.618;2022-10-16T03:45:16;100943.56;;;10.56;100.00
59729;BME280;45588;51.598;5.618;2022-10-16T03:47:42;100938.34;;;10.56;100.00
59729;BME280;45588;51.598;5.618;2022-10-16T03:50:07;100943.56;;;10.57;100.00
59729;BME280;45588;51.598;5.618;2022-10-16T03:52:33;100952.31;;;10.59;100.00
59729;BME280;45588;51.598;5.618;2022-10-16T03:54:58;100945.25;;;10.55;100.00
59729;BME280;45588;51.598;5.618;2022-10-16T03:57:24;100950.47;;;10.55;100.00
59729;BME280;45588;51.598;5.618;2022-10-16T03:59:49;100942.66;;;10.55;100.00
59729;BME280;45588;51.598;5.618;2022-10-16T04:02:14;100959.31;;;10.62;100.00
59729;BME280;45588;51.598;5.618;2022-10-16T04:04:40;100947.97;;;10.60;100.00
59729;BME280;45588;51.598;5.618;2022-10-16T04:07:05;100946.22;;;10.59;100.00
59729;BME280;45588;51.598;5.618;2022-10-16T04:09:30;100948.91;;;10.62;100.00
59729;BME280;45588;51.598;5.618;2022-10-16T04:11:56;100955.09;;;10.67;100.00
59729;BME280;45588;51.598;5.618;2022-10-16T04:14:21;100950.75;;;10.66;100.00
59729;BME280;45588;51.598;5.618;2022-10-16T04:16:46;100943.63;;;10.59;100.00
59729;BME280;45588;51.598;5.618;2022-10-16T04:19:11;100955.03;;;10.66;100.00
59729;BME280;45588;51.598;5.618;2022-10-16T04:21:37;100959.38;;;10.64;100.00
59729;BME280;45588;51.598;5.618;2022-10-16T04:24:02;100963.84;;;10.69;100.00
59729;BME280;45588;51.598;5.618;2022-10-16T04:26:28;100961.19;;;10.68;100.00
59729;BME280;45588;51.598;5.618;2022-10-16T04:28:53;100966.38;;;10.68;100.00
59729;BME280;45588;51.598;5.618;2022-10-16T04:31:19;100976.88;;;10.71;100.00
59729;BME280;45588;51.598;5.618;2022-10-16T04:33:44;100966.50;;;10.72;100.00
59729;BME280;45588;51.598;5.618;2022-10-16T04:36:09;100966.47;;;10.71;100.00
59729;BME280;45588;51.598;5.618;2022-10-16T04:38:35;100956.91;;;10.70;100.00
59729;BME280;45588;51.598;5.618;2022-10-16T04:41:02;100965.63;;;10.72;100.00
59729;BME280;45588;51.598;5.618;2022-10-16T04:43:28;100967.38;;;10.73;100.00
59729;BME280;45588;51.598;5.618;2022-10-16T04:45:53;100974.38;;;10.75;100.00
59729;BME280;45588;51.598;5.618;2022-10-16T04:48:19;100967.44;;;10.74;100.00
59729;BME280;45588;51.598;5.618;2022-10-16T04:50:45;100978.78;;;10.78;100.00
59729;BME280;45588;51.598;5.618;2022-10-16T04:53:10;100981.41;;;10.78;100.00
59729;BME280;45588;51.598;5.618;2022-10-16T04:55:36;100990.91;;;10.76;100.00
59729;BME280;45588;51.598;5.618;2022-10-16T04:58:02;100983.00;;;10.73;100.00
59729;BME280;45588;51.598;5.618;2022-10-16T05:00:27;100990.88;;;10.74;100.00
59729;BME280;45588;51.598;5.618;2022-10-16T05:02:53;100996.97;;;10.75;100.00
59729;BME280;45588;51.598;5.618;2022-10-16T05:05:18;100978.53;;;10.67;100.00
59729;BME280;45588;51.598;5.618;2022-10-16T05:07:48;100992.56;;;10.72;100.00
59729;BME280;45588;51.598;5.618;2022-10-16T05:10:14;100995.09;;;10.69;100.00
59729;BME280;45588;51.598;5.618;2022-10-16T05:12:40;101000.31;;;10.71;100.00
59729;BME280;45588;51.598;5.618;2022-10-16T05:15:05;101005.53;;;10.71;100.00
59729;BME280;45588;51.598;5.618;2022-10-16T05:17:31;101013.28;;;10.68;100.00
59729;BME280;45588;51.598;5.618;2022-10-16T05:19:56;101021.94;;;10.67;100.00
59729;BME280;45588;51.598;5.618;2022-10-16T05:22:21;101027.16;;;10.67;100.00
59729;BME280;45588;51.598;5.618;2022-10-16T05:24:47;101023.66;;;10.66;100.00
59729;BME280;45588;51.598;5.618;2022-10-16T05:27:12;101014.81;;;10.59;100.00
59729;BME280;45588;51.598;5.618;2022-10-16T05:29:47;101025.41;;;10.67;100.00
59729;BME280;45588;51.598;5.618;2022-10-16T05:32:17;101020.22;;;10.67;100.00
59729;BME280;45588;51.598;5.618;2022-10-16T05:34:43;101020.03;;;10.59;100.00
59729;BME280;45588;51.598;5.618;2022-10-16T05:37:09;101027.91;;;10.63;100.00
59729;BME280;45588;51.598;5.618;2022-10-16T05:39:35;101032.91;;;10.55;100.00
59729;BME280;45588;51.598;5.618;2022-10-16T05:42:02;101047.06;;;10.65;100.00
59729;BME280;45588;51.598;5.618;2022-10-16T05:44:27;101054.81;;;10.63;100.00
59729;BME280;45588;51.598;5.618;2022-10-16T05:46:52;101061.75;;;10.61;100.00
59729;BME280;45588;51.598;5.618;2022-10-16T05:49:18;101072.19;;;10.63;100.00
59729;BME280;45588;51.598;5.618;2022-10-16T05:51:43;101064.28;;;10.59;100.00
59729;BME280;45588;51.598;5.618;2022-10-16T05:54:08;101077.38;;;10.61;100.00
59729;BME280;45588;51.598;5.618;2022-10-16T05:56:34;101083.47;;;10.63;100.00
59729;BME280;45588;51.598;5.618;2022-10-16T05:58:59;101092.88;;;10.56;100.00
59729;BME280;45588;51.598;5.618;2022-10-16T06:01:24;101102.50;;;10.60;100.00
59729;BME280;45588;51.598;5.618;2022-10-16T06:03:53;101105.09;;;10.59;100.00
59729;BME280;45588;51.598;5.618;2022-10-16T06:06:20;101100.63;;;10.55;100.00
59729;BME280;45588;51.598;5.618;2022-10-16T06:08:47;101113.69;;;10.56;100.00
59729;BME280;45588;51.598;5.618;2022-10-16T06:11:25;101104.06;;;10.54;100.00
59729;BME280;45588;51.598;5.618;2022-10-16T06:13:51;101116.22;;;10.53;100.00
59729;BME280;45588;51.598;5.618;2022-10-16T06:16:17;101117.09;;;10.54;100.00
59729;BME280;45588;51.598;5.618;2022-10-16T06:18:43;101119.66;;;10.52;100.00
59729;BME280;45588;51.598;5.618;2022-10-16T06:21:14;101123.25;;;10.56;100.00
59729;BME280;45588;51.598;5.618;2022-10-16T06:23:41;101124.13;;;10.56;100.00
59729;BME280;45588;51.598;5.618;2022-10-16T06:26:08;101123.19;;;10.54;100.00
59729;BME280;45588;51.598;5.618;2022-10-16T06:28:34;101124.94;;;10.55;100.00
59729;BME280;45588;51.598;5.618;2022-10-16T06:31:00;101132.84;;;10.58;100.00
59729;BME280;45588;51.598;5.618;2022-10-16T06:33:25;101134.59;;;10.59;100.00
59729;BME280;45588;51.598;5.618;2022-10-16T06:35:50;101140.56;;;10.55;100.00
59729;BME280;45588;51.598;5.618;2022-10-16T06:38:16;101145.81;;;10.57;100.00
59729;BME280;45588;51.598;5.618;2022-10-16T06:40:41;101149.16;;;10.51;100.00
59729;BME280;45588;51.598;5.618;2022-10-16T06:43:06;101158.91;;;10.58;100.00
59729;BME280;45588;51.598;5.618;2022-10-16T06:45:31;101151.31;;;10.68;100.00
59729;BME280;45588;51.598;5.618;2022-10-16T06:47:57;101163.09;;;10.85;100.00
59729;BME280;45588;51.598;5.618;2022-10-16T06:50:22;101165.97;;;10.96;100.00
59729;BME280;45588;51.598;5.618;2022-10-16T06:52:47;101167.97;;;11.06;100.00
59729;BME280;45588;51.598;5.618;2022-10-16T06:55:12;101171.81;;;11.20;100.00
59729;BME280;45588;51.598;5.618;2022-10-16T06:57:38;101178.16;;;11.30;100.00
59729;BME280;45588;51.598;5.618;2022-10-16T07:00:04;101166.25;;;11.41;100.00
59729;BME280;45588;51.598;5.618;2022-10-16T07:02:29;101177.81;;;11.51;100.00
59729;BME280;45588;51.598;5.618;2022-10-16T07:04:54;101184.94;;;11.58;100.00
59729;BME280;45588;51.598;5.618;2022-10-16T07:07:21;101182.75;;;11.75;100.00
59729;BME280;45588;51.598;5.618;2022-10-16T07:09:49;101181.28;;;11.86;100.00
59729;BME280;45588;51.598;5.618;2022-10-16T07:12:14;101184.16;;;11.97;100.00
59729;BME280;45588;51.598;5.618;2022-10-16T07:14:40;101194.19;;;12.18;100.00
59729;BME280;45588;51.598;5.618;2022-10-16T07:17:05;101195.28;;;12.29;100.00
59729;BME280;45588;51.598;5.618;2022-10-16T07:19:30;101197.34;;;12.43;100.00
59729;BME280;45588;51.598;5.618;2022-10-16T07:21:56;101207.06;;;12.50;100.00
59729;BME280;45588;51.598;5.618;2022-10-16T07:24:22;101211.75;;;12.66;100.00
59729;BME280;45588;51.598;5.618;2022-10-16T07:26:47;101212.66;;;12.68;100.00
59729;BME280;45588;51.598;5.618;2022-10-16T07:29:20;101212.91;;;12.81;100.00
59729;BME280;45588;51.598;5.618;2022-10-16T07:31:46;101226.16;;;12.90;100.00
59729;BME280;45588;51.598;5.618;2022-10-16T07:34:13;101225.56;;;13.03;100.00
59729;BME280;45588;51.598;5.618;2022-10-16T07:36:39;101237.00;;;13.10;100.00
59729;BME280;45588;51.598;5.618;2022-10-16T07:39:04;101245.06;;;13.20;100.00
59729;BME280;45588;51.598;5.618;2022-10-16T07:41:30;101242.47;;;13.22;100.00
59729;BME280;45588;51.598;5.618;2022-10-16T07:43:57;101249.47;;;13.23;100.00
59729;BME280;45588;51.598;5.618;2022-10-16T07:46:25;101251.31;;;13.27;100.00
59729;BME280;45588;51.598;5.618;2022-10-16T07:48:51;101258.47;;;13.37;100.00
59729;BME280;45588;51.598;5.618;2022-10-16T07:51:18;101260.38;;;13.46;100.00
59729;BME280;45588;51.598;5.618;2022-10-16T07:53:44;101258.78;;;13.54;100.00
59729;BME280;45588;51.598;5.618;2022-10-16T07:56:10;101266.84;;;13.67;100.00
59729;BME280;45588;51.598;5.618;2022-10-16T07:58:36;101265.28;;;13.78;100.00
59729;BME280;45588;51.598;5.618;2022-10-16T08:01:07;101275.06;;;13.90;100.00
59729;BME280;45588;51.598;5.618;2022-10-16T08:03:33;101269.00;;;13.92;100.00
59729;BME280;45588;51.598;5.618;2022-10-16T08:06:00;101282.41;;;14.12;100.00
59729;BME280;45588;51.598;5.618;2022-10-16T08:08:26;101281.66;;;14.21;100.00
59729;BME280;45588;51.598;5.618;2022-10-16T08:10:51;101280.00;;;14.24;100.00
59729;BME280;45588;51.598;5.618;2022-10-16T08:13:16;101283.53;;;14.28;100.00
59729;BME280;45588;51.598;5.618;2022-10-16T08:15:42;101294.97;;;14.35;100.00
59729;BME280;45588;51.598;5.618;2022-10-16T08:18:09;101297.78;;;14.48;100.00
59729;BME280;45588;51.598;5.618;2022-10-16T08:20:34;101307.41;;;14.46;100.00
59729;BME280;45588;51.598;5.618;2022-10-16T08:23:00;101296.03;;;14.47;100.00
59729;BME280;45588;51.598;5.618;2022-10-16T08:25:26;101305.69;;;14.50;100.00
59729;BME280;45588;51.598;5.618;2022-10-16T08:27:52;101311.09;;;14.61;100.00
59729;BME280;45588;51.598;5.618;2022-10-16T08:30:19;101313.78;;;14.65;100.00
59729;BME280;45588;51.598;5.618;2022-10-16T08:32:44;101313.94;;;14.76;100.00
59729;BME280;45588;51.598;5.618;2022-10-16T08:35:11;101315.72;;;14.79;100.00
59729;BME280;45588;51.598;5.618;2022-10-16T08:37:37;101321.13;;;14.91;100.00
59729;BME280;45588;51.598;5.618;2022-10-16T08:40:05;101325.47;;;14.87;100.00
59729;BME280;45588;51.598;5.618;2022-10-16T08:42:50;101331.66;;;14.92;100.00
59729;BME280;45588;51.598;5.618;2022-10-16T08:45:31;101332.72;;;15.08;100.00
59729;BME280;45588;51.598;5.618;2022-10-16T08:50:29;101348.31;;;14.99;100.00
59729;BME280;45588;51.598;5.618;2022-10-16T08:52:56;101348.50;;;15.13;100.00
59729;BME280;45588;51.598;5.618;2022-10-16T08:56:07;101354.69;;;15.18;100.00
59729;BME280;45588;51.598;5.618;2022-10-16T08:58:22;101346.88;;;15.24;100.00
59729;BME280;45588;51.598;5.618;2022-10-16T09:00:54;101350.34;;;15.22;100.00
59729;BME280;45588;51.598;5.618;2022-10-16T09:06:19;101350.72;;;15.54;100.00
59729;BME280;45588;51.598;5.618;2022-10-16T09:11:44;101361.44;;;15.71;100.00
59729;BME280;45588;51.598;5.618;2022-10-16T09:19:54;101365.09;;;15.85;100.00
59729;BME280;45588;51.598;5.618;2022-10-16T09:22:26;101374.88;;;16.01;100.00
59729;BME280;45588;51.598;5.618;2022-10-16T09:24:53;101390.78;;;16.18;100.00
59729;BME280;45588;51.598;5.618;2022-10-16T09:27:19;101381.91;;;16.04;100.00
59729;BME280;45588;51.598;5.618;2022-10-16T09:29:44;101383.81;;;16.22;100.00
59729;BME280;45588;51.598;5.618;2022-10-16T09:32:17;101383.69;;;16.05;100.00
59729;BME280;45588;51.598;5.618;2022-10-16T09:34:50;101386.25;;;16.00;100.00
59729;BME280;45588;51.598;5.618;2022-10-16T09:37:19;101392.53;;;16.16;100.00
59729;BME280;45588;51.598;5.618;2022-10-16T09:39:49;101396.06;;;16.21;100.00
59729;BME280;45588;51.598;5.618;2022-10-16T09:42:31;101389.13;;;16.33;100.00
59729;BME280;45588;51.598;5.618;2022-10-16T09:44:57;101390.91;;;16.35;100.00
59729;BME280;45588;51.598;5.618;2022-10-16T09:47:25;101386.56;;;16.37;100.00
59729;BME280;45588;51.598;5.618;2022-10-16T09:49:59;101390.16;;;16.46;100.00
59729;BME280;45588;51.598;5.618;2022-10-16T09:52:27;101389.28;;;16.48;100.00
59729;BME280;45588;51.598;5.618;2022-10-16T09:54:55;101391.81;;;16.36;100.00
59729;BME280;45588;51.598;5.618;2022-10-16T09:57:21;101391.78;;;16.34;100.00
59729;BME280;45588;51.598;5.618;2022-10-16T09:59:48;101403.31;;;16.49;100.00
59729;BME280;45588;51.598;5.618;2022-10-16T10:02:16;101405.06;;;16.48;100.00
59729;BME280;45588;51.598;5.618;2022-10-16T10:04:48;101405.84;;;16.36;100.00
59729;BME280;45588;51.598;5.618;2022-10-16T10:07:25;101407.66;;;16.43;100.00
59729;BME280;45588;51.598;5.618;2022-10-16T10:09:51;101402.38;;;16.40;100.00
59729;BME280;45588;51.598;5.618;2022-10-16T10:14:48;101406.81;;;16.52;100.00
59729;BME280;45588;51.598;5.618;2022-10-16T10:17:23;101409.69;;;16.80;100.00
59729;BME280;45588;51.598;5.618;2022-10-16T10:19:54;101404.34;;;16.71;100.00
59729;BME280;45588;51.598;5.618;2022-10-16T10:22:32;101409.59;;;16.69;100.00
59729;BME280;45588;51.598;5.618;2022-10-16T10:30:53;101427.50;;;17.28;100.00
59729;BME280;45588;51.598;5.618;2022-10-16T10:33:51;101432.84;;;17.42;100.00
59729;BME280;45588;51.598;5.618;2022-10-16T10:36:28;101437.25;;;17.46;100.00
59729;BME280;45588;51.598;5.618;2022-10-16T10:44:54;101434.66;;;17.57;100.00
59729;BME280;45588;51.598;5.618;2022-10-16T10:47:59;101433.81;;;17.67;100.00
59729;BME280;45588;51.598;5.618;2022-10-16T10:50:41;101441.66;;;17.53;100.00
59729;BME280;45588;51.598;5.618;2022-10-16T10:53:21;101436.47;;;17.75;100.00
59729;BME280;45588;51.598;5.618;2022-10-16T10:58:58;101435.59;;;17.79;100.00
59729;BME280;45588;51.598;5.618;2022-10-16T11:07:22;101440.06;;;18.03;100.00
59729;BME280;45588;51.598;5.618;2022-10-16T11:10:04;101439.19;;;18.06;100.00
59729;BME280;45588;51.598;5.618;2022-10-16T11:12:42;101444.47;;;18.06;100.00
59729;BME280;45588;51.598;5.618;2022-10-16T11:15:19;101444.44;;;17.93;97.93
59729;BME280;45588;51.598;5.618;2022-10-16T11:20:28;101441.84;;;18.04;96.92
59729;BME280;45588;51.598;5.618;2022-10-16T11:23:05;101452.41;;;18.20;100.00
59729;BME280;45588;51.598;5.618;2022-10-16T11:25:33;101447.16;;;18.27;99.14
59729;BME280;45588;51.598;5.618;2022-10-16T11:28:07;101439.22;;;18.12;91.64
59729;BME280;45588;51.598;5.618;2022-10-16T11:30:50;101445.28;;;17.86;92.98
59729;BME280;45588;51.598;5.618;2022-10-16T11:33:22;101440.91;;;17.85;98.00
59729;BME280;45588;51.598;5.618;2022-10-16T11:35:57;101448.81;;;17.82;96.39
59729;BME280;45588;51.598;5.618;2022-10-16T11:38:38;101445.34;;;17.97;97.94
59729;BME280;45588;51.598;5.618;2022-10-16T11:41:18;101453.28;;;18.22;97.14
59729;BME280;45588;51.598;5.618;2022-10-16T11:43:54;101451.53;;;18.22;93.18
59729;BME280;45588;51.598;5.618;2022-10-16T11:46:24;101455.03;;;18.16;92.36
59729;BME280;45588;51.598;5.618;2022-10-16T11:49:09;101459.41;;;17.98;92.95
59729;BME280;45588;51.598;5.618;2022-10-16T11:51:40;101462.88;;;17.80;95.40
59729;BME280;45588;51.598;5.618;2022-10-16T11:54:33;101466.31;;;17.72;95.50
59729;BME280;45588;51.598;5.618;2022-10-16T11:57:12;101466.19;;;17.45;95.82
59729;BME280;45588;51.598;5.618;2022-10-16T11:59:51;101466.16;;;17.37;98.88
59729;BME280;45588;51.598;5.618;2022-10-16T12:02:30;101469.69;;;17.36;94.83
59729;BME280;45588;51.598;5.618;2022-10-16T12:05:03;101470.59;;;17.50;97.62
59729;BME280;45588;51.598;5.618;2022-10-16T12:07:39;101467.06;;;17.39;97.76
59729;BME280;45588;51.598;5.618;2022-10-16T12:10:20;101456.56;;;17.56;98.22
59729;BME280;45588;51.598;5.618;2022-10-16T12:12:46;101452.28;;;17.78;96.91
59729;BME280;45588;51.598;5.618;2022-10-16T12:17:43;101460.22;;;17.80;95.40
59729;BME280;45588;51.598;5.618;2022-10-16T12:22:36;101469.03;;;17.89;94.05
59729;BME280;45588;51.598;5.618;2022-10-16T12:25:17;101468.97;;;17.79;98.43
59729;BME280;45588;51.598;5.618;2022-10-16T12:27:44;101480.47;;;17.94;94.37
59729;BME280;45588;51.598;5.618;2022-10-16T12:30:21;101472.59;;;18.05;93.42
59729;BME280;45588;51.598;5.618;2022-10-16T12:33:00;101463.81;;;18.12;96.33
59729;BME280;45588;51.598;5.618;2022-10-16T12:35:35;101466.47;;;18.15;93.29
59729;BME280;45588;51.598;5.618;2022-10-16T12:38:20;101460.28;;;18.16;95.18
59729;BME280;45588;51.598;5.618;2022-10-16T12:40:55;101467.28;;;17.99;93.68
59729;BME280;45588;51.598;5.618;2022-10-16T12:43:24;101462.88;;;17.89;95.20
59729;BME280;45588;51.598;5.618;2022-10-16T12:46:00;101474.28;;;17.83;96.49
59729;BME280;45588;51.598;5.618;2022-10-16T12:48:25;101462.81;;;17.69;93.66
59729;BME280;45588;51.598;5.618;2022-10-16T12:50:50;101458.41;;;17.71;92.03
59729;BME280;45588;51.598;5.618;2022-10-16T12:53:24;101464.66;;;17.87;94.82
59729;BME280;45588;51.598;5.618;2022-10-16T12:56:12;101465.56;;;18.09;95.13
59729;BME280;45588;51.598;5.618;2022-10-16T13:07:03;101462.97;;;18.46;92.04
59729;BME280;45588;51.598;5.618;2022-10-16T13:15:44;101470.00;;;18.14;90.13
59729;BME280;45588;51.598;5.618;2022-10-16T13:20:54;101463.81;;;18.11;89.87
59729;BME280;45588;51.598;5.618;2022-10-16T13:23:26;101468.19;;;17.92;90.29
59729;BME280;45588;51.598;5.618;2022-10-16T13:26:18;101473.41;;;17.83;93.39
59729;BME280;45588;51.598;5.618;2022-10-16T13:28:47;101467.19;;;17.76;87.60
59729;BME280;45588;51.598;5.618;2022-10-16T13:31:19;101460.13;;;17.57;91.76
59729;BME280;45588;51.598;5.618;2022-10-16T13:33:47;101464.50;;;17.55;92.77
59729;BME280;45588;51.598;5.618;2022-10-16T13:36:21;101465.34;;;17.50;96.37
59729;BME280;45588;51.598;5.618;2022-10-16T13:38:47;101479.44;;;17.60;94.92
59729;BME280;45588;51.598;5.618;2022-10-16T13:41:16;101483.81;;;17.57;97.77
59729;BME280;45588;51.598;5.618;2022-10-16T13:43:44;101480.28;;;17.53;98.58
59729;BME280;45588;51.598;5.618;2022-10-16T13:46:15;101481.16;;;17.53;98.48
59729;BME280;45588;51.598;5.618;2022-10-16T13:48:41;101480.31;;;17.58;97.69
59729;BME280;45588;51.598;5.618;2022-10-16T13:51:17;101481.22;;;17.67;100.00
59729;BME280;45588;51.598;5.618;2022-10-16T13:53:44;101482.06;;;17.66;100.00
59729;BME280;45588;51.598;5.618;2022-10-16T13:56:16;101481.19;;;17.61;100.00
59729;BME280;45588;51.598;5.618;2022-10-16T13:58:41;101484.72;;;17.63;100.00
59729;BME280;45588;51.598;5.618;2022-10-16T14:01:20;101482.97;;;17.68;100.00
59729;BME280;45588;51.598;5.618;2022-10-16T14:03:48;101482.09;;;17.68;98.93
59729;BME280;45588;51.598;5.618;2022-10-16T14:06:21;101480.41;;;17.81;100.00
59729;BME280;45588;51.598;5.618;2022-10-16T14:08:50;101468.13;;;17.89;100.00